Time;durP1;ratioP1;P1;durP2;ratioP2;P2;SDS_P1;SDS_P2;PMS_P1;PMS_P2;Temp;Humidity;BMP_temperature;BMP_pressure;BME280_temperature;BME280_humidity;BME280_pressure;Samples;Min_cycle;Max_cycle;Signal;HPM_P1;HPM_P2
2023/08/30 00:01:01;;;;;;;3.03;1.40;;;13.60;99.90;;;;;;4966538;28;20563;-85
2023/08/30 00:03:29;;;;;;;4.22;1.88;;;13.60;99.90;;;;;;4968899;28;20158;-83
2023/08/30 00:05:55;;;;;;;2.60;1.60;;;13.60;99.90;;;;;;4956416;28;20295;-82
2023/08/30 00:08:23;;;;;;;6.35;1.42;;;13.60;99.90;;;;;;4965741;28;20491;-83
2023/08/30 00:10:49;;;;;;;2.88;1.42;;;13.60;99.90;;;;;;4965646;28;20034;-83
2023/08/30 00:13:18;;;;;;;3.42;1.50;;;13.60;99.90;;;;;;4964684;28;20129;-85
2023/08/30 00:15:47;;;;;;;2.67;1.70;;;13.60;99.90;;;;;;4963491;28;20173;-89
2023/08/30 00:18:13;;;;;;;7.32;1.80;;;13.60;99.90;;;;;;4967011;28;20042;-83
2023/08/30 00:20:44;;;;;;;5.47;1.90;;;13.70;99.90;;;;;;4968614;28;20031;-84
2023/08/30 00:23:13;;;;;;;2.60;1.73;;;13.70;99.90;;;;;;4966530;28;20185;-85
2023/08/30 00:25:39;;;;;;;9.90;1.90;;;13.70;99.90;;;;;;4962467;28;20089;-85
2023/08/30 00:28:07;;;;;;;3.70;1.70;;;13.70;99.90;;;;;;4967740;28;20026;-85
2023/08/30 00:30:33;;;;;;;3.15;1.50;;;13.70;99.90;;;;;;4967451;28;20143;-84
2023/08/30 00:33:02;;;;;;;2.72;1.55;;;13.70;99.90;;;;;;4957926;28;20165;-85
2023/08/30 00:35:27;;;;;;;5.75;1.52;;;13.70;99.90;;;;;;4964385;28;20121;-83
2023/08/30 00:37:53;;;;;;;7.53;1.58;;;13.70;99.90;;;;;;4957393;28;20173;-89
2023/08/30 00:40:39;;;;;;;5.65;1.67;;;13.70;99.90;;;;;;4966308;28;20554;-83
2023/08/30 00:43:05;;;;;;;3.72;1.52;;;13.70;99.90;;;;;;4961308;28;20440;-83
2023/08/30 00:45:31;;;;;;;4.18;1.52;;;13.70;99.90;;;;;;4959725;28;20061;-85
2023/08/30 00:47:57;;;;;;;3.20;1.58;;;13.60;99.90;;;;;;4967840;28;20114;-85
2023/08/30 00:50:23;;;;;;;5.28;1.42;;;13.60;99.90;;;;;;4967178;28;20174;-84
2023/08/30 00:52:52;;;;;;;1.38;1.25;;;13.60;99.90;;;;;;4960260;28;20627;-89
2023/08/30 00:55:23;;;;;;;5.00;1.73;;;13.60;99.90;;;;;;4964624;28;20447;-89
2023/08/30 00:57:49;;;;;;;3.55;1.63;;;13.60;99.90;;;;;;4964699;28;20042;-84
2023/08/30 01:00:18;;;;;;;2.30;1.58;;;13.60;99.90;;;;;;4966864;28;20018;-85
2023/08/30 01:02:44;;;;;;;2.70;1.40;;;13.50;99.90;;;;;;4964983;28;20085;-84
2023/08/30 01:05:10;;;;;;;3.88;1.20;;;13.50;99.90;;;;;;4959150;28;20035;-83
2023/08/30 01:07:36;;;;;;;2.33;1.50;;;13.50;99.90;;;;;;4966438;28;20037;-83
2023/08/30 01:10:01;;;;;;;3.10;1.40;;;13.50;99.90;;;;;;4958639;28;20469;-83
2023/08/30 01:12:37;;;;;;;1.77;1.27;;;13.40;99.90;;;;;;4969591;28;20245;-84
2023/08/30 01:15:18;;;;;;;4.60;1.67;;;13.40;99.90;;;;;;4957197;28;20429;-89
2023/08/30 01:17:44;;;;;;;1.48;1.33;;;13.40;99.90;;;;;;4965289;28;20038;-85
2023/08/30 01:20:14;;;;;;;2.63;1.27;;;13.30;99.90;;;;;;4966035;28;20480;-85
2023/08/30 01:23:00;;;;;;;1.95;1.27;;;13.30;99.90;;;;;;4964595;28;20041;-84
2023/08/30 01:25:53;;;;;;;1.30;1.20;;;13.20;99.90;;;;;;4962891;28;20504;-84
2023/08/30 01:28:23;;;;;;;1.00;1.00;;;13.20;99.90;;;;;;4966894;28;20198;-88
2023/08/30 01:30:49;;;;;;;5.38;1.20;;;13.20;99.90;;;;;;4959215;28;20031;-84
2023/08/30 01:33:17;;;;;;;5.25;1.33;;;13.10;99.90;;;;;;4957204;28;20620;-84
2023/08/30 01:35:43;;;;;;;7.78;2.13;;;13.10;99.90;;;;;;4966868;28;20940;-84
2023/08/30 01:38:10;;;;;;;7.30;1.67;;;13.00;99.90;;;;;;4965690;28;20022;-84
2023/08/30 01:40:44;;;;;;;3.90;1.60;;;13.00;99.90;;;;;;4963331;28;20023;-88
2023/08/30 01:43:10;;;;;;;4.13;1.60;;;12.90;99.90;;;;;;4966151;28;20042;-85
2023/08/30 01:45:40;;;;;;;4.80;1.75;;;12.90;99.90;;;;;;4965173;28;20324;-83
2023/08/30 01:48:09;;;;;;;3.65;1.63;;;12.80;99.90;;;;;;4968173;28;20392;-88
2023/08/30 01:50:35;;;;;;;5.32;1.50;;;12.90;99.90;;;;;;4963347;28;20047;-85
2023/08/30 01:53:02;;;;;;;2.22;1.55;;;12.80;99.90;;;;;;4961035;28;20038;-85
2023/08/30 01:55:29;;;;;;;1.58;1.48;;;12.80;99.90;;;;;;4963832;28;20027;-84
2023/08/30 01:57:55;;;;;;;6.35;1.50;;;12.70;99.90;;;;;;4965126;28;20030;-83
2023/08/30 02:00:20;;;;;;;10.35;1.90;;;12.70;99.90;;;;;;4965437;28;20023;-82
2023/08/30 02:02:47;;;;;;;1.77;1.38;;;12.70;99.90;;;;;;4955516;28;20031;-83
2023/08/30 02:05:14;;;;;;;2.72;1.58;;;12.70;99.90;;;;;;4962368;28;20729;-90
2023/08/30 02:07:55;;;;;;;7.47;1.70;;;12.60;99.90;;;;;;4963996;28;20031;-83
2023/08/30 02:10:50;;;;;;;5.20;1.80;;;12.60;99.90;;;;;;4964678;28;20496;-87
2023/08/30 02:13:17;;;;;;;3.80;1.83;;;12.60;99.90;;;;;;4958659;28;20058;-87
2023/08/30 02:15:43;;;;;;;3.05;1.70;;;12.50;99.90;;;;;;4959344;28;20489;-83
2023/08/30 02:18:10;;;;;;;2.50;1.60;;;12.50;99.90;;;;;;4962724;28;20031;-83
2023/08/30 02:20:35;;;;;;;2.63;1.50;;;12.50;99.90;;;;;;4962689;28;20034;-83
2023/08/30 02:23:01;;;;;;;2.47;1.40;;;12.50;99.90;;;;;;4966559;28;20023;-83
2023/08/30 02:25:26;;;;;;;2.35;1.58;;;12.50;99.90;;;;;;4965087;28;20118;-83
2023/08/30 02:27:52;;;;;;;7.18;3.20;;;12.50;99.90;;;;;;4963851;28;20030;-82
2023/08/30 02:30:18;;;;;;;1.63;1.40;;;12.50;99.90;;;;;;4964806;28;20023;-83
2023/08/30 02:32:44;;;;;;;1.98;1.50;;;12.50;99.90;;;;;;4963956;28;20041;-84
2023/08/30 02:35:09;;;;;;;4.05;1.85;;;12.50;99.90;;;;;;4956110;28;20027;-85
2023/08/30 02:37:35;;;;;;;1.88;1.63;;;12.40;99.90;;;;;;4962151;28;20714;-84
2023/08/30 02:40:00;;;;;;;5.20;1.60;;;12.40;99.90;;;;;;4965213;28;20449;-88
2023/08/30 02:42:26;;;;;;;3.47;1.73;;;12.40;99.90;;;;;;4962365;28;20042;-83
2023/08/30 02:44:53;;;;;;;3.60;1.80;;;12.40;99.90;;;;;;4944620;28;20035;-83
2023/08/30 02:47:18;;;;;;;4.13;1.90;;;12.40;99.90;;;;;;4964828;28;20041;-83
2023/08/30 02:49:44;;;;;;;2.78;1.60;;;12.40;99.90;;;;;;4966400;28;20468;-83
2023/08/30 02:52:09;;;;;;;2.22;1.70;;;12.40;99.90;;;;;;4962511;28;20026;-85
2023/08/30 02:57:57;;;;;;;3.10;1.83;;;12.40;99.90;;;;;;4968754;23;20055;-83
2023/08/30 03:00:22;;;;;;;6.63;2.20;;;12.30;99.90;;;;;;4948123;23;20059;-88
2023/08/30 03:02:49;;;;;;;4.03;2.30;;;12.30;99.90;;;;;;4946406;29;20027;-84
2023/08/30 03:05:14;;;;;;;5.82;2.10;;;12.30;99.90;;;;;;4947334;28;20501;-84
2023/08/30 03:07:40;;;;;;;4.47;1.95;;;12.30;99.90;;;;;;4947431;29;20042;-86
2023/08/30 03:10:06;;;;;;;8.48;2.28;;;12.20;99.90;;;;;;4945783;29;20068;-85
2023/08/30 03:12:32;;;;;;;4.07;1.63;;;12.20;99.90;;;;;;4946506;29;20033;-85
2023/08/30 03:14:58;;;;;;;3.67;1.98;;;12.20;99.90;;;;;;4946470;29;20035;-84
2023/08/30 03:17:24;;;;;;;2.53;1.65;;;12.20;99.90;;;;;;4947738;29;20466;-88
2023/08/30 03:19:53;;;;;;;3.75;2.00;;;12.20;99.90;;;;;;4944507;29;20757;-84
2023/08/30 03:22:18;;;;;;;6.32;1.65;;;12.20;99.90;;;;;;4942251;29;20548;-84
2023/08/30 03:24:44;;;;;;;3.05;1.95;;;12.20;99.90;;;;;;4944156;29;20339;-84
2023/08/30 03:27:10;;;;;;;2.00;1.80;;;12.20;99.90;;;;;;4943052;28;20027;-88
2023/08/30 03:29:35;;;;;;;3.60;1.80;;;12.20;99.90;;;;;;4945835;29;20034;-85
2023/08/30 03:32:01;;;;;;;6.68;1.77;;;12.10;99.90;;;;;;4942616;28;20537;-84
2023/08/30 03:34:27;;;;;;;4.80;1.98;;;12.20;99.90;;;;;;4948537;28;20121;-85
2023/08/30 03:36:54;;;;;;;7.18;2.08;;;12.10;99.90;;;;;;4941952;28;20054;-86
2023/08/30 03:39:22;;;;;;;4.22;1.95;;;12.10;99.90;;;;;;4947757;29;20027;-84
2023/08/30 03:41:48;;;;;;;5.75;2.08;;;12.10;99.90;;;;;;4945973;29;20031;-84
2023/08/30 03:44:13;;;;;;;3.38;1.88;;;12.10;99.90;;;;;;4941035;29;20094;-84
2023/08/30 03:46:39;;;;;;;6.47;2.05;;;12.10;99.90;;;;;;4942592;29;20038;-87
2023/08/30 03:49:04;;;;;;;3.20;1.83;;;12.10;99.90;;;;;;4949658;28;20053;-85
2023/08/30 03:51:32;;;;;;;4.93;2.05;;;12.10;99.90;;;;;;4945303;28;20051;-85
2023/08/30 03:53:58;;;;;;;7.97;2.67;;;12.10;99.90;;;;;;4946163;29;20031;-85
2023/08/30 03:56:23;;;;;;;3.10;1.50;;;12.10;99.90;;;;;;4948254;29;20023;-86
2023/08/30 03:58:49;;;;;;;3.13;2.05;;;12.00;99.90;;;;;;4944624;29;20054;-85
2023/08/30 04:01:14;;;;;;;2.53;1.33;;;12.00;99.90;;;;;;4945067;28;20565;-85
2023/08/30 04:03:40;;;;;;;2.03;1.60;;;12.00;99.90;;;;;;4942512;28;20044;-85
2023/08/30 04:06:05;;;;;;;4.80;2.38;;;12.00;99.90;;;;;;4945261;28;20043;-85
2023/08/30 04:08:35;;;;;;;2.85;1.67;;;12.10;99.90;;;;;;4946998;28;20038;-91
2023/08/30 04:11:01;;;;;;;3.85;1.98;;;12.00;99.90;;;;;;4946803;28;20038;-85
2023/08/30 04:13:27;;;;;;;2.63;1.98;;;12.00;99.90;;;;;;4942080;29;20042;-85
2023/08/30 04:15:58;;;;;;;1.95;1.70;;;12.10;99.90;;;;;;4945144;28;20023;-88
2023/08/30 04:18:24;;;;;;;2.15;1.95;;;12.10;99.90;;;;;;4943076;28;20050;-87
2023/08/30 04:20:52;;;;;;;3.38;1.75;;;12.00;99.90;;;;;;4946535;28;20501;-88
2023/08/30 04:23:18;;;;;;;5.93;1.85;;;12.00;99.90;;;;;;4944156;28;20050;-84
2023/08/30 04:25:46;;;;;;;2.58;1.77;;;12.00;99.90;;;;;;4944938;28;20024;-84
2023/08/30 04:28:11;;;;;;;2.90;2.08;;;12.00;99.90;;;;;;4940932;28;20023;-86
2023/08/30 04:30:46;;;;;;;2.38;1.70;;;12.00;99.90;;;;;;4943220;28;20367;-85
2023/08/30 04:33:14;;;;;;;5.38;1.33;;;12.00;99.90;;;;;;4945447;29;20031;-84
2023/08/30 04:35:40;;;;;;;1.50;1.40;;;12.00;99.90;;;;;;4948309;29;20039;-85
2023/08/30 04:38:07;;;;;;;1.38;1.27;;;12.00;99.90;;;;;;4946246;28;20084;-89
2023/08/30 04:40:41;;;;;;;4.43;1.65;;;12.00;99.90;;;;;;4948561;29;20050;-85
2023/08/30 04:43:07;;;;;;;5.00;1.90;;;12.00;99.90;;;;;;4944892;28;20027;-84
2023/08/30 04:45:34;;;;;;;3.17;1.80;;;12.00;99.90;;;;;;4948560;28;20283;-85
2023/08/30 04:48:00;;;;;;;2.45;1.50;;;12.00;99.90;;;;;;4931220;29;20027;-84
2023/08/30 04:50:26;;;;;;;2.28;1.73;;;12.00;99.90;;;;;;4949680;29;20034;-84
2023/08/30 04:52:51;;;;;;;1.65;1.55;;;11.90;99.90;;;;;;4948575;28;20495;-85
2023/08/30 04:55:17;;;;;;;5.93;1.75;;;12.00;99.90;;;;;;4938931;28;20023;-84
2023/08/30 04:57:47;;;;;;;1.95;1.75;;;12.00;99.90;;;;;;4951148;29;20378;-85
2023/08/30 05:00:13;;;;;;;1.52;1.42;;;12.00;99.90;;;;;;4948284;28;20070;-84
2023/08/30 05:02:40;;;;;;;1.42;1.33;;;12.00;99.90;;;;;;4946563;28;20024;-87
2023/08/30 05:05:07;;;;;;;5.25;1.60;;;12.00;99.90;;;;;;4948138;28;20078;-85
2023/08/30 05:07:32;;;;;;;2.63;1.40;;;12.00;99.90;;;;;;4946904;29;20086;-84
2023/08/30 05:09:58;;;;;;;2.55;1.40;;;12.00;99.90;;;;;;4948532;29;20031;-85
2023/08/30 05:12:23;;;;;;;2.53;1.70;;;12.00;99.90;;;;;;4947947;29;20425;-88
2023/08/30 05:14:49;;;;;;;1.95;1.70;;;12.00;99.90;;;;;;4948165;29;20031;-84
2023/08/30 05:17:15;;;;;;;3.35;1.90;;;12.00;99.90;;;;;;4948120;29;20038;-84
2023/08/30 05:19:40;;;;;;;8.70;2.42;;;12.00;99.90;;;;;;4947177;29;20034;-85
2023/08/30 05:22:06;;;;;;;1.80;1.50;;;12.00;99.90;;;;;;4948913;29;20556;-84
2023/08/30 05:24:31;;;;;;;1.73;1.55;;;12.00;99.90;;;;;;4949553;29;20064;-84
2023/08/30 05:26:57;;;;;;;3.78;2.00;;;12.10;99.90;;;;;;4949707;29;20031;-85
2023/08/30 05:29:24;;;;;;;1.98;1.70;;;12.10;99.90;;;;;;4946722;29;20477;-87
2023/08/30 05:31:54;;;;;;;4.85;1.55;;;12.10;99.90;;;;;;4947461;29;20037;-86
2023/08/30 05:34:23;;;;;;;3.33;1.73;;;12.20;99.90;;;;;;4948564;29;20024;-89
2023/08/30 05:36:49;;;;;;;2.67;1.63;;;12.20;99.90;;;;;;4947720;29;20035;-85
2023/08/30 05:39:15;;;;;;;4.40;1.75;;;12.20;99.90;;;;;;4945436;29;20070;-85
2023/08/30 05:41:40;;;;;;;1.60;1.50;;;12.30;99.90;;;;;;4946398;29;20031;-85
2023/08/30 05:44:09;;;;;;;2.20;2.00;;;12.40;99.90;;;;;;4947990;29;20035;-89
2023/08/30 05:46:35;;;;;;;1.85;1.70;;;12.40;99.90;;;;;;4941309;29;20086;-84
2023/08/30 05:49:02;;;;;;;2.00;1.80;;;12.50;99.90;;;;;;4947779;29;20031;-84
2023/08/30 05:51:28;;;;;;;1.75;1.60;;;12.60;99.90;;;;;;4945765;29;20034;-85
2023/08/30 05:53:54;;;;;;;1.90;1.50;;;12.70;99.90;;;;;;4947838;29;20023;-87
2023/08/30 05:56:22;;;;;;;3.63;2.17;;;12.80;99.90;;;;;;4946617;28;20054;-89
2023/08/30 05:58:48;;;;;;;2.00;1.77;;;12.90;99.90;;;;;;4939918;29;20073;-85
2023/08/30 06:01:14;;;;;;;4.05;1.60;;;12.90;99.90;;;;;;4947702;29;20031;-84
2023/08/30 06:03:40;;;;;;;1.30;1.20;;;13.00;99.90;;;;;;4946192;29;20051;-85
2023/08/30 06:06:05;;;;;;;1.88;1.52;;;13.10;99.90;;;;;;4948003;29;20023;-84
2023/08/30 06:08:31;;;;;;;2.70;1.88;;;13.10;99.90;;;;;;4945681;29;20027;-85
2023/08/30 06:10:57;;;;;;;6.10;1.65;;;13.20;99.90;;;;;;4947548;29;20110;-90
2023/08/30 06:13:23;;;;;;;2.15;1.83;;;13.20;99.90;;;;;;4946960;29;20027;-86
2023/08/30 06:15:52;;;;;;;2.25;1.65;;;13.30;99.90;;;;;;4945725;29;20031;-85
2023/08/30 06:18:18;;;;;;;2.22;2.03;;;13.30;99.90;;;;;;4945300;29;20078;-85
2023/08/30 06:20:44;;;;;;;3.80;2.00;;;13.40;99.90;;;;;;4944483;29;20035;-85
2023/08/30 06:23:10;;;;;;;2.25;1.60;;;13.40;99.90;;;;;;4943864;29;20037;-85
2023/08/30 06:25:35;;;;;;;2.13;1.75;;;13.50;99.90;;;;;;4945215;29;20126;-85
2023/08/30 06:28:03;;;;;;;4.90;1.77;;;13.50;99.90;;;;;;4944485;29;20028;-87
2023/08/30 06:30:32;;;;;;;1.65;1.55;;;13.50;99.90;;;;;;4945699;29;20057;-84
2023/08/30 06:32:57;;;;;;;1.92;1.73;;;13.60;99.90;;;;;;4946469;29;20389;-85
2023/08/30 06:35:24;;;;;;;5.75;2.22;;;13.60;99.90;;;;;;4945984;29;20027;-85
2023/08/30 06:37:50;;;;;;;7.85;2.20;;;13.70;99.90;;;;;;4947410;29;20066;-84
2023/08/30 06:40:16;;;;;;;2.67;2.35;;;13.80;99.90;;;;;;4948458;29;20038;-85
2023/08/30 06:42:42;;;;;;;3.40;2.42;;;13.90;99.90;;;;;;4946712;29;20039;-85
2023/08/30 06:45:08;;;;;;;4.47;2.13;;;14.00;99.90;;;;;;4946284;29;20061;-85
2023/08/30 06:47:34;;;;;;;5.28;2.35;;;14.10;99.90;;;;;;4945478;29;20094;-84
2023/08/30 06:50:01;;;;;;;4.93;1.77;;;14.20;99.90;;;;;;4946509;29;20454;-85
2023/08/30 06:52:26;;;;;;;8.18;2.03;;;14.20;99.90;;;;;;4946675;29;20087;-85
2023/08/30 06:54:52;;;;;;;5.47;2.20;;;14.30;99.90;;;;;;4945663;29;20027;-85
2023/08/30 06:57:18;;;;;;;3.00;1.80;;;14.40;99.90;;;;;;4946757;29;20444;-84
2023/08/30 06:59:45;;;;;;;5.38;2.28;;;14.50;99.90;;;;;;4945516;28;20047;-85
2023/08/30 07:02:10;;;;;;;7.05;2.30;;;14.50;99.90;;;;;;4944934;29;20024;-86
2023/08/30 07:04:40;;;;;;;4.13;2.20;;;14.50;99.90;;;;;;4944370;29;20504;-90
2023/08/30 07:07:06;;;;;;;6.13;2.25;;;14.70;99.90;;;;;;4943363;29;20039;-91
2023/08/30 07:09:33;;;;;;;4.28;1.80;;;14.70;99.90;;;;;;4944239;29;20035;-85
2023/08/30 07:11:59;;;;;;;3.03;2.17;;;14.80;99.90;;;;;;4927323;29;20035;-86
2023/08/30 07:14:26;;;;;;;6.15;2.47;;;14.80;99.90;;;;;;4945454;29;20023;-90
2023/08/30 07:16:51;;;;;;;2.47;1.52;;;14.90;99.90;;;;;;4947469;29;20485;-86
2023/08/30 07:19:17;;;;;;;3.40;1.90;;;15.00;99.90;;;;;;4944970;29;20099;-86
2023/08/30 07:21:43;;;;;;;5.28;1.83;;;15.00;99.90;;;;;;4946257;29;20137;-86
2023/08/30 07:24:09;;;;;;;4.47;2.13;;;15.00;99.90;;;;;;4945980;29;20051;-89
2023/08/30 07:26:35;;;;;;;2.88;1.63;;;15.00;99.90;;;;;;4945013;29;20396;-86
2023/08/30 07:29:04;;;;;;;5.47;2.05;;;15.00;99.90;;;;;;4946661;29;20494;-90
2023/08/30 07:31:32;;;;;;;10.05;1.90;;;14.90;99.90;;;;;;4945735;29;20505;-90
2023/08/30 07:33:59;;;;;;;3.03;1.83;;;15.00;99.90;;;;;;4947215;29;20366;-85
2023/08/30 07:36:28;;;;;;;9.50;2.22;;;15.00;99.90;;;;;;4945019;29;20031;-87
2023/08/30 07:38:54;;;;;;;5.03;2.20;;;15.10;99.90;;;;;;4945940;29;20027;-86
2023/08/30 07:41:19;;;;;;;4.35;1.65;;;15.10;99.90;;;;;;4948188;29;20075;-86
2023/08/30 07:43:45;;;;;;;2.13;1.63;;;15.10;99.90;;;;;;4946769;29;20043;-87
2023/08/30 07:46:11;;;;;;;4.43;2.03;;;15.10;99.90;;;;;;4945584;29;20054;-87
2023/08/30 07:48:36;;;;;;;3.35;2.00;;;15.20;99.90;;;;;;4945592;29;20063;-86
2023/08/30 07:51:02;;;;;;;3.85;1.92;;;15.30;99.90;;;;;;4944784;29;20547;-88
2023/08/30 07:53:27;;;;;;;4.57;1.75;;;15.40;99.90;;;;;;4944937;29;20035;-87
2023/08/30 07:55:53;;;;;;;3.55;1.85;;;15.50;99.90;;;;;;4944550;29;20036;-88
2023/08/30 07:58:19;;;;;;;10.10;3.35;;;15.60;99.90;;;;;;4943493;29;20042;-87
2023/08/30 08:00:44;;;;;;;2.88;1.50;;;15.60;99.90;;;;;;4944677;29;20405;-87
2023/08/30 08:03:10;;;;;;;3.58;1.55;;;15.70;99.90;;;;;;4945038;29;20031;-89
2023/08/30 08:05:36;;;;;;;9.32;1.80;;;15.70;99.90;;;;;;4946397;29;20031;-86
2023/08/30 08:08:02;;;;;;;2.35;1.83;;;15.90;99.90;;;;;;4947202;29;20430;-87
2023/08/30 08:10:32;;;;;;;10.73;2.13;;;15.90;99.90;;;;;;4944889;29;20035;-89
2023/08/30 08:12:58;;;;;;;2.42;1.70;;;16.00;99.90;;;;;;4928521;29;20261;-87
2023/08/30 08:15:25;;;;;;;5.22;2.10;;;16.10;99.90;;;;;;4944014;29;20271;-87
2023/08/30 08:17:50;;;;;;;8.27;1.92;;;16.30;99.90;;;;;;4946977;28;20031;-87
2023/08/30 08:20:16;;;;;;;3.00;1.52;;;16.40;99.90;;;;;;4948876;29;20031;-87
2023/08/30 08:22:45;;;;;;;5.47;2.00;;;16.50;99.90;;;;;;4948926;29;20380;-94
2023/08/30 08:25:11;;;;;;;6.38;1.80;;;16.60;99.90;;;;;;4950494;29;20045;-89
2023/08/30 08:27:36;;;;;;;2.95;1.30;;;16.70;99.90;;;;;;4947943;29;20035;-88
2023/08/30 08:30:04;;;;;;;2.85;1.73;;;16.70;99.90;;;;;;4948082;29;20457;-90
2023/08/30 08:32:30;;;;;;;3.55;1.50;;;16.80;99.90;;;;;;4946560;29;20385;-87
2023/08/30 08:34:58;;;;;;;5.72;2.03;;;16.80;99.90;;;;;;4946366;29;20027;-87
2023/08/30 08:37:23;;;;;;;5.07;1.98;;;16.80;99.90;;;;;;4946339;29;20027;-87
2023/08/30 08:39:50;;;;;;;5.40;1.70;;;16.80;99.90;;;;;;4947590;29;20101;-90
2023/08/30 08:42:18;;;;;;;3.22;1.73;;;16.90;99.90;;;;;;4944036;29;20058;-87
2023/08/30 08:44:44;;;;;;;3.95;2.10;;;16.90;99.90;;;;;;4947465;29;20039;-89
2023/08/30 08:47:10;;;;;;;5.00;1.50;;;16.90;99.90;;;;;;4948368;29;20027;-94
2023/08/30 08:49:36;;;;;;;2.88;1.63;;;16.90;99.90;;;;;;4949064;29;20030;-87
2023/08/30 08:52:03;;;;;;;4.60;1.90;;;16.80;99.90;;;;;;4948931;29;20082;-88
2023/08/30 08:54:29;;;;;;;5.78;1.83;;;16.80;99.90;;;;;;4947397;29;20046;-89
2023/08/30 08:56:55;;;;;;;5.00;2.33;;;16.80;99.90;;;;;;4949532;29;20114;-89
2023/08/30 08:59:24;;;;;;;8.15;1.85;;;16.70;99.90;;;;;;4948012;29;20123;-89
2023/08/30 09:01:50;;;;;;;2.92;1.48;;;16.80;99.90;;;;;;4931188;29;20078;-86
2023/08/30 09:04:16;;;;;;;4.95;1.67;;;16.80;99.90;;;;;;4948524;29;20043;-89
2023/08/30 09:06:43;;;;;;;5.60;2.08;;;16.80;99.90;;;;;;4947495;29;20225;-88
2023/08/30 09:09:10;;;;;;;5.43;2.92;;;16.90;99.90;;;;;;4948257;29;20139;-91
2023/08/30 09:11:35;;;;;;;1.60;1.42;;;16.90;99.90;;;;;;4948226;29;20031;-87
2023/08/30 09:14:01;;;;;;;2.25;1.35;;;16.90;99.90;;;;;;4948301;29;20027;-89
2023/08/30 09:16:27;;;;;;;6.88;1.80;;;17.00;99.90;;;;;;4947994;29;20268;-88
2023/08/30 09:19:00;;;;;;;4.03;1.30;;;17.10;99.90;;;;;;4945320;29;20062;-90
2023/08/30 09:21:26;;;;;;;1.05;0.93;;;17.10;99.90;;;;;;4945275;29;20438;-89
2023/08/30 09:24:05;;;;;;;3.08;1.30;;;17.00;99.90;;;;;;4946819;29;20047;-88
2023/08/30 09:26:33;;;;;;;3.47;1.77;;;17.10;99.90;;;;;;4939124;29;20023;-89
2023/08/30 09:29:06;;;;;;;2.50;1.25;;;17.20;99.90;;;;;;4945627;28;20031;-92
2023/08/30 09:31:37;;;;;;;4.00;1.38;;;17.30;99.90;;;;;;4944520;29;20031;-88
2023/08/30 09:34:04;;;;;;;2.05;1.33;;;17.50;99.90;;;;;;4946899;29;20031;-88
2023/08/30 09:36:37;;;;;;;2.03;1.20;;;17.60;99.90;;;;;;4946219;29;20320;-89
2023/08/30 09:39:04;;;;;;;1.02;0.93;;;17.70;99.90;;;;;;4948124;29;20489;-86
2023/08/30 09:41:32;;;;;;;2.47;1.05;;;17.80;99.90;;;;;;4946626;29;20126;-88
2023/08/30 09:43:59;;;;;;;6.07;1.27;;;17.90;99.90;;;;;;4947467;29;20098;-88
2023/08/30 09:46:27;;;;;;;3.08;1.20;;;17.90;99.90;;;;;;4947215;29;20027;-92
2023/08/30 09:48:54;;;;;;;3.80;1.63;;;17.90;99.90;;;;;;4941814;29;20512;-88
2023/08/30 09:51:23;;;;;;;5.07;1.20;;;17.90;99.90;;;;;;4947884;29;20541;-86
2023/08/30 09:53:51;;;;;;;5.45;1.40;;;17.90;99.90;;;;;;4947990;29;20087;-80
2023/08/30 09:56:17;;;;;;;4.63;1.63;;;17.80;99.90;;;;;;4947723;29;20031;-87
2023/08/30 09:58:44;;;;;;;1.48;1.27;;;17.80;99.90;;;;;;4946875;29;20042;-87
2023/08/30 10:01:10;;;;;;;4.93;1.17;;;17.70;99.90;;;;;;4947895;29;20031;-88
2023/08/30 10:03:36;;;;;;;3.05;0.88;;;17.70;99.90;;;;;;4946565;29;20039;-88
2023/08/30 10:06:05;;;;;;;3.25;1.00;;;17.70;99.90;;;;;;4947893;29;20034;-86
2023/08/30 10:08:33;;;;;;;2.35;1.00;;;17.70;99.90;;;;;;4945369;29;20027;-88
2023/08/30 10:11:00;;;;;;;3.90;1.55;;;17.70;99.90;;;;;;4947058;29;20118;-88
2023/08/30 10:13:27;;;;;;;1.27;1.20;;;17.70;99.90;;;;;;4945476;29;20034;-93
2023/08/30 10:16:00;;;;;;;2.20;1.10;;;17.70;99.90;;;;;;4946946;28;20031;-90
2023/08/30 10:18:29;;;;;;;3.42;1.42;;;17.80;99.90;;;;;;4945926;29;20027;-89
2023/08/30 10:21:00;;;;;;;4.90;1.25;;;17.90;99.90;;;;;;4945920;29;20066;-93
2023/08/30 10:23:28;;;;;;;4.68;1.30;;;18.00;99.90;;;;;;4944862;29;20329;-89
2023/08/30 10:25:54;;;;;;;2.30;1.48;;;18.00;99.90;;;;;;4946419;29;20031;-90
2023/08/30 10:28:23;;;;;;;2.00;1.15;;;18.20;99.90;;;;;;4944998;29;20038;-89
2023/08/30 10:30:48;;;;;;;1.40;1.10;;;18.20;99.90;;;;;;4948154;29;20034;-88
2023/08/30 10:33:16;;;;;;;1.27;1.15;;;18.30;99.90;;;;;;4946260;29;20039;-88
2023/08/30 10:35:51;;;;;;;6.85;1.63;;;18.30;99.90;;;;;;4938873;29;20034;-84
2023/08/30 10:38:29;;;;;;;4.53;1.30;;;18.50;99.90;;;;;;4946683;29;20441;-89
2023/08/30 10:40:55;;;;;;;2.17;1.15;;;18.60;99.90;;;;;;4946943;28;20077;-90
2023/08/30 10:43:34;;;;;;;5.25;1.52;;;18.70;99.90;;;;;;4947735;29;20031;-89
2023/08/30 10:46:05;;;;;;;4.30;1.77;;;18.80;99.90;;;;;;4929695;29;20121;-89
2023/08/30 10:48:38;;;;;;;1.98;1.00;;;18.90;99.90;;;;;;4945563;29;20030;-88
2023/08/30 10:51:21;;;;;;;1.65;1.20;;;18.90;99.90;;;;;;4946929;29;20106;-89
2023/08/30 10:53:59;;;;;;;3.22;1.23;;;19.10;99.90;;;;;;4946293;29;20038;-86
2023/08/30 10:56:32;;;;;;;1.83;1.20;;;19.10;99.90;;;;;;4945817;29;20031;-87
2023/08/30 10:58:58;;;;;;;5.70;1.50;;;19.20;99.90;;;;;;4945026;28;20051;-89
2023/08/30 11:01:26;;;;;;;6.05;1.42;;;19.30;99.90;;;;;;4945431;29;20500;-89
2023/08/30 11:03:53;;;;;;;2.15;1.58;;;19.30;99.90;;;;;;4945660;29;20043;-93
2023/08/30 11:06:19;;;;;;;1.88;1.40;;;19.30;99.90;;;;;;4928944;29;20027;-89
2023/08/30 11:08:47;;;;;;;3.03;1.60;;;19.30;99.90;;;;;;4945042;29;20397;-90
2023/08/30 11:11:14;;;;;;;1.50;1.40;;;19.40;99.90;;;;;;4943997;29;20043;-90
2023/08/30 11:13:40;;;;;;;1.30;1.20;;;19.50;99.90;;;;;;4943674;29;20070;-90
2023/08/30 11:16:06;;;;;;;4.13;1.90;;;19.40;99.90;;;;;;4947497;29;20055;-90
2023/08/30 11:18:38;;;;;;;2.95;2.10;;;19.40;99.90;;;;;;4944828;29;20095;-89
2023/08/30 11:21:04;;;;;;;2.38;2.00;;;19.30;99.90;;;;;;4946970;29;20043;-88
2023/08/30 11:23:30;;;;;;;3.85;2.65;;;19.30;99.90;;;;;;4945299;29;20520;-89
2023/08/30 11:25:56;;;;;;;6.78;2.40;;;19.30;99.90;;;;;;4946486;29;20047;-92
2023/08/30 11:28:24;;;;;;;2.65;2.25;;;19.40;99.90;;;;;;4929917;29;20026;-93
2023/08/30 11:30:54;;;;;;;8.27;2.53;;;19.40;99.90;;;;;;4946760;29;20485;-91
2023/08/30 11:33:20;;;;;;;8.75;2.30;;;19.40;99.90;;;;;;4946251;29;20039;-91
2023/08/30 11:35:51;;;;;;;3.65;2.65;;;19.40;99.90;;;;;;4946355;29;20035;-89
2023/08/30 11:38:19;;;;;;;2.42;1.98;;;19.30;99.90;;;;;;4947284;29;20067;-94
2023/08/30 11:40:48;;;;;;;3.53;2.10;;;19.20;99.90;;;;;;4946212;29;20031;-87
2023/08/30 11:43:17;;;;;;;2.30;2.10;;;19.20;99.90;;;;;;4929980;29;20135;-88
2023/08/30 11:45:42;;;;;;;9.82;1.90;;;19.10;99.90;;;;;;4946436;29;20039;-88
2023/08/30 11:48:08;;;;;;;3.28;2.20;;;19.00;99.90;;;;;;4945618;29;20023;-90
2023/08/30 11:50:35;;;;;;;6.90;2.08;;;18.90;99.90;;;;;;4944867;29;20073;-88
2023/08/30 11:53:02;;;;;;;1.70;1.58;;;18.90;99.90;;;;;;4945462;28;20031;-89
2023/08/30 11:55:28;;;;;;;2.97;1.85;;;18.80;99.90;;;;;;4948226;29;20054;-92
2023/08/30 11:57:54;;;;;;;2.30;1.60;;;18.80;99.90;;;;;;4949717;29;20032;-91
2023/08/30 12:00:20;;;;;;;6.03;2.67;;;18.70;99.90;;;;;;4947367;29;20094;-91
2023/08/30 12:02:48;;;;;;;9.75;3.63;;;18.70;99.90;;;;;;4947413;29;20074;-88
2023/08/30 12:05:14;;;;;;;4.70;2.83;;;18.70;99.90;;;;;;4949043;29;20101;-87
2023/08/30 12:07:40;;;;;;;8.48;3.03;;;18.60;99.90;;;;;;4951242;29;20023;-89
2023/08/30 12:10:12;;;;;;;3.78;2.78;;;18.60;99.90;;;;;;4951512;29;20035;-96
2023/08/30 12:12:38;;;;;;;5.10;3.75;;;18.60;99.90;;;;;;4951045;29;20117;-91
2023/08/30 12:15:10;;;;;;;4.15;3.40;;;18.60;99.90;;;;;;4950526;29;20039;-87
2023/08/30 12:17:36;;;;;;;3.50;3.17;;;18.70;99.90;;;;;;4950800;29;20478;-88
2023/08/30 12:20:06;;;;;;;9.68;5.30;;;18.60;99.90;;;;;;4950007;29;20032;-92
2023/08/30 12:22:38;;;;;;;7.30;4.55;;;18.60;99.90;;;;;;4949862;29;20023;-94
2023/08/30 12:25:04;;;;;;;9.40;4.38;;;18.50;99.90;;;;;;4949794;29;20051;-89
2023/08/30 12:27:30;;;;;;;6.45;3.85;;;18.60;99.90;;;;;;4950048;29;20046;-86
2023/08/30 12:29:56;;;;;;;6.32;3.72;;;18.50;99.90;;;;;;4942286;29;20485;-87
2023/08/30 12:32:21;;;;;;;5.13;3.60;;;18.50;99.90;;;;;;4949478;29;20596;-84
2023/08/30 12:34:47;;;;;;;4.65;3.75;;;18.50;99.90;;;;;;4945504;29;20059;-89
2023/08/30 12:37:12;;;;;;;5.90;3.22;;;18.50;99.90;;;;;;4930938;29;20019;-88
2023/08/30 12:39:38;;;;;;;4.50;3.58;;;18.50;99.90;;;;;;4948077;29;20042;-89
2023/08/30 12:42:04;;;;;;;5.97;2.85;;;18.40;99.90;;;;;;4946404;28;20031;-88
2023/08/30 12:44:30;;;;;;;5.18;3.88;;;18.50;99.90;;;;;;4942406;29;20109;-89
2023/08/30 12:46:55;;;;;;;3.47;2.80;;;18.50;99.90;;;;;;4945446;29;20050;-87
2023/08/30 12:49:22;;;;;;;6.20;3.55;;;18.50;99.90;;;;;;4949560;29;20030;-94